createdAt,value
2022-12-08T00:00:40.254Z,100524.56
2022-12-08T00:03:06.736Z,100525.72
2022-12-08T00:05:51.828Z,100518.88
2022-12-08T00:08:36.970Z,100506.81
2022-12-08T00:11:03.449Z,100519.63
2022-12-08T00:13:29.877Z,100509.09
2022-12-08T00:16:02.563Z,100503.81
2022-12-08T00:18:29.149Z,100498.50
2022-12-08T00:20:56.884Z,100496.69
2022-12-08T00:23:23.387Z,100497.06
2022-12-08T00:25:49.850Z,100509.16
2022-12-08T00:28:16.493Z,100502.66
2022-12-08T00:30:43.312Z,100501.91
2022-12-08T00:33:10.271Z,100506.13
2022-12-08T00:35:42.774Z,100495.53
2022-12-08T00:38:09.541Z,100506.88
2022-12-08T00:40:36.028Z,100488.78
2022-12-08T00:43:02.457Z,100487.63
2022-12-08T00:45:29.000Z,100470.63
2022-12-08T00:47:55.600Z,100468.00
2022-12-08T00:50:22.022Z,100466.84
2022-12-08T00:52:48.499Z,100458.91
2022-12-08T00:55:14.972Z,100463.84
2022-12-08T00:57:41.550Z,100470.63
2022-12-08T01:00:08.479Z,100474.03
2022-12-08T01:02:35.223Z,100467.63
2022-12-08T01:05:01.705Z,100464.25
2022-12-08T01:07:28.102Z,100467.63
2022-12-08T01:09:54.589Z,100478.19
2022-12-08T01:12:21.001Z,100466.88
2022-12-08T01:14:47.436Z,100481.22
2022-12-08T01:17:13.964Z,100472.56
2022-12-08T01:19:40.390Z,100484.25
2022-12-08T01:22:06.789Z,100474.81
2022-12-08T01:24:33.567Z,100476.34
2022-12-08T01:27:00.104Z,100476.72
2022-12-08T01:29:27.837Z,100482.75
2022-12-08T01:31:54.253Z,100477.81
2022-12-08T01:34:20.706Z,100478.22
2022-12-08T01:36:48.038Z,100483.47
2022-12-08T01:39:16.417Z,100485.00
2022-12-08T01:41:44.036Z,100469.88
2022-12-08T01:44:13.138Z,100477.81
2022-12-08T01:46:41.758Z,100468.34
2022-12-08T01:49:20.562Z,100481.97
2022-12-08T01:52:00.014Z,100482.34
2022-12-08T01:54:29.783Z,100487.22
2022-12-08T01:57:01.416Z,100475.53
2022-12-08T01:59:29.072Z,100472.53
2022-12-08T02:01:55.982Z,100475.53
2022-12-08T02:04:22.509Z,100468.28
2022-12-08T02:06:49.310Z,100478.53
2022-12-08T02:09:15.933Z,100470.53
2022-12-08T02:11:42.354Z,100472.03
2022-12-08T02:14:11.439Z,100463.41
2022-12-08T02:17:13.333Z,100460.72
2022-12-08T02:20:15.545Z,100456.97
2022-12-08T02:22:55.180Z,100447.50
2022-12-08T02:25:27.269Z,100442.56
2022-12-08T02:28:05.453Z,100444.84
2022-12-08T02:30:47.054Z,100438.03
2022-12-08T02:33:45.153Z,100434.34
2022-12-08T02:36:20.496Z,100430.91
2022-12-08T02:39:01.499Z,100431.63
2022-12-08T02:41:46.433Z,100428.91
2022-12-08T02:44:20.327Z,100422.13
2022-12-08T02:46:56.313Z,100422.16
2022-12-08T02:49:31.843Z,100420.59
2022-12-08T02:52:28.367Z,100418.31
2022-12-08T02:54:58.428Z,100423.69
2022-12-08T02:57:24.723Z,100425.09
2022-12-08T02:59:57.917Z,100421.34
2022-12-08T03:02:34.715Z,100418.03
2022-12-08T03:05:14.718Z,100416.22
2022-12-08T03:07:48.179Z,100410.44
2022-12-08T03:10:35.529Z,100403.97
2022-12-08T03:13:21.293Z,100403.94
2022-12-08T03:15:49.575Z,100397.44
2022-12-08T03:18:17.343Z,100386.44
2022-12-08T03:20:45.222Z,100389.53
2022-12-08T03:23:12.814Z,100389.53
2022-12-08T03:25:43.634Z,100387.25
2022-12-08T03:28:10.295Z,100390.94
2022-12-08T03:30:39.417Z,100384.84
2022-12-08T03:33:15.624Z,100378.78
2022-12-08T03:35:42.978Z,100372.72
2022-12-08T03:38:15.464Z,100369.41
2022-12-08T03:40:42.253Z,100372.75
2022-12-08T03:43:08.774Z,100372.09
2022-12-08T03:45:35.246Z,100374.34
2022-12-08T03:48:01.776Z,100372.81
2022-12-08T03:50:28.355Z,100377.75
2022-12-08T03:52:54.865Z,100368.00
2022-12-08T03:55:21.525Z,100353.31
2022-12-08T03:57:47.942Z,100355.69
2022-12-08T04:00:15.756Z,100352.03
2022-12-08T04:02:42.209Z,100348.78
2022-12-08T04:05:09.123Z,100355.44
2022-12-08T04:07:35.646Z,100348.75
2022-12-08T04:10:02.452Z,100352.84
2022-12-08T04:12:28.987Z,100340.09
2022-12-08T04:14:56.786Z,100349.47
2022-12-08T04:17:23.361Z,100348.34
2022-12-08T04:19:49.774Z,100342.66
2022-12-08T04:22:16.293Z,100341.88
2022-12-08T04:24:42.718Z,100337.31
2022-12-08T04:27:09.079Z,100326.34
2022-12-08T04:29:35.481Z,100334.28
2022-12-08T04:32:01.850Z,100331.31
2022-12-08T04:34:28.282Z,100329.53
2022-12-08T04:36:54.804Z,100335.88
2022-12-08T04:39:21.244Z,100333.53
2022-12-08T04:41:47.694Z,100327.50
2022-12-08T04:44:14.082Z,100333.94
2022-12-08T04:46:43.557Z,100326.47
2022-12-08T04:49:10.366Z,100337.69
2022-12-08T04:51:36.776Z,100335.00
2022-12-08T04:54:03.176Z,100333.53
2022-12-08T04:56:30.420Z,100321.16
2022-12-08T04:58:56.823Z,100327.22
2022-12-08T05:01:23.313Z,100332.84
2022-12-08T05:03:49.889Z,100326.13
2022-12-08T05:06:16.394Z,100329.13
2022-12-08T05:08:43.702Z,100324.97
2022-12-08T05:11:11.738Z,100317.72
2022-12-08T05:13:38.147Z,100323.03
2022-12-08T05:16:06.983Z,100318.47
2022-12-08T05:18:33.532Z,100308.34
2022-12-08T05:21:00.017Z,100312.13
2022-12-08T05:23:27.342Z,100312.91
2022-12-08T05:25:53.783Z,100302.31
2022-12-08T05:28:40.914Z,100309.09
2022-12-08T05:31:06.851Z,100307.47
2022-12-08T05:33:33.340Z,100302.59
2022-12-08T05:35:59.793Z,100304.88
2022-12-08T05:38:26.399Z,100306.38
2022-12-08T05:40:52.817Z,100294.38
2022-12-08T05:43:19.197Z,100295.88
2022-12-08T05:46:08.280Z,100311.69
2022-12-08T05:48:35.596Z,100309.81
2022-12-08T05:51:02.111Z,100307.13
2022-12-08T05:53:28.546Z,100316.91
2022-12-08T05:55:55.022Z,100313.19
2022-12-08T05:58:22.840Z,100320.69
2022-12-08T06:00:50.413Z,100315.41
2022-12-08T06:03:18.485Z,100314.28
2022-12-08T06:05:46.498Z,100310.03
2022-12-08T06:08:13.480Z,100308.13
2022-12-08T06:10:41.565Z,100310.78
2022-12-08T06:13:08.263Z,100311.47
2022-12-08T06:15:35.762Z,100313.75
2022-12-08T06:18:02.205Z,100308.06
2022-12-08T06:20:28.737Z,100309.38
2022-12-08T06:22:55.821Z,100317.03
2022-12-08T06:25:22.940Z,100316.16
2022-12-08T06:27:49.480Z,100315.41
2022-12-08T06:30:16.440Z,100319.31
2022-12-08T06:32:43.977Z,100310.53
2022-12-08T06:35:10.627Z,100308.81
2022-12-08T06:37:37.066Z,100320.78
2022-12-08T06:40:04.069Z,100315.09
2022-12-08T06:42:46.882Z,100313.91
2022-12-08T06:45:16.040Z,100311.84
2022-12-08T06:47:42.925Z,100316.91
2022-12-08T06:50:10.533Z,100312.41
2022-12-08T06:52:45.297Z,100301.09
2022-12-08T06:55:42.123Z,100303.34
2022-12-08T06:58:02.389Z,100286.81
2022-12-08T07:00:28.849Z,100261.47
2022-12-08T07:02:55.371Z,100264.56
2022-12-08T07:05:21.818Z,100257.38
2022-12-08T07:07:48.290Z,100277.00
2022-12-08T07:10:14.886Z,100289.84
2022-12-08T07:12:41.300Z,100311.00
2022-12-08T07:15:08.511Z,100319.41
2022-12-08T07:17:34.973Z,100323.97
2022-12-08T07:20:01.995Z,100332.63
2022-12-08T07:22:28.730Z,100337.28
2022-12-08T07:24:55.199Z,100336.91
2022-12-08T07:27:21.606Z,100326.69
2022-12-08T07:29:48.028Z,100339.84
2022-12-08T07:32:14.495Z,100346.63
2022-12-08T07:34:40.939Z,100343.59
2022-12-08T07:37:07.364Z,100337.91
2022-12-08T07:39:33.903Z,100348.53
2022-12-08T07:42:01.631Z,100344.44
2022-12-08T07:44:28.026Z,100347.03
2022-12-08T07:46:54.445Z,100337.56
2022-12-08T07:49:21.092Z,100338.31
2022-12-08T07:51:47.520Z,100342.13
2022-12-08T07:54:13.929Z,100329.22
2022-12-08T07:56:40.373Z,100338.34
2022-12-08T07:59:06.781Z,100333.84
2022-12-08T08:01:34.586Z,100339.16
2022-12-08T08:04:04.268Z,100333.94
2022-12-08T08:06:31.932Z,100332.38
2022-12-08T08:08:58.395Z,100341.06
2022-12-08T08:11:25.017Z,100341.41
2022-12-08T08:13:52.511Z,100347.81
2022-12-08T08:16:21.970Z,100339.94
2022-12-08T08:18:50.269Z,100350.47
2022-12-08T08:24:04.611Z,100362.63
2022-12-08T08:26:31.049Z,100351.28
2022-12-08T08:28:57.472Z,100351.56
2022-12-08T08:31:27.326Z,100352.31
2022-12-08T08:33:54.497Z,100351.16
2022-12-08T08:36:22.096Z,100355.78
2022-12-08T08:38:48.721Z,100358.84
2022-12-08T08:41:15.168Z,100366.03
2022-12-08T08:43:41.596Z,100366.78
2022-12-08T08:46:09.061Z,100362.59
2022-12-08T08:48:36.236Z,100371.31
2022-12-08T08:51:13.786Z,100370.16
2022-12-08T08:53:40.783Z,100373.91
2022-12-08T08:56:15.606Z,100376.88
2022-12-08T08:58:42.613Z,100381.47
2022-12-08T09:01:09.349Z,100380.72
2022-12-08T09:03:35.838Z,100386.78
2022-12-08T09:06:02.323Z,100384.50
2022-12-08T09:08:28.865Z,100386.38
2022-12-08T09:10:55.369Z,100389.03
2022-12-08T09:13:22.322Z,100395.03
2022-12-08T09:15:49.198Z,100402.91
2022-12-08T09:18:15.710Z,100396.44
2022-12-08T09:20:42.377Z,100388.59
2022-12-08T09:23:08.833Z,100392.03
2022-12-08T09:25:35.228Z,100393.50
2022-12-08T09:28:01.666Z,100395.41
2022-12-08T09:30:28.052Z,100394.19
2022-12-08T09:32:54.543Z,100394.09
2022-12-08T09:35:20.985Z,100394.88
2022-12-08T09:37:47.392Z,100396.13
2022-12-08T09:40:17.754Z,100394.13
2022-12-08T09:42:52.095Z,100388.41
2022-12-08T09:45:19.445Z,100392.56
2022-12-08T09:47:52.622Z,100393.69
2022-12-08T09:50:30.388Z,100392.94
2022-12-08T09:53:03.891Z,100399.41
2022-12-08T09:55:52.916Z,100395.94
2022-12-08T09:58:29.232Z,100383.47
2022-12-08T10:00:56.252Z,100394.00
2022-12-08T10:03:25.477Z,100389.53
2022-12-08T10:06:20.673Z,100392.47
2022-12-08T10:09:24.085Z,100396.78
2022-12-08T10:11:55.451Z,100388.00
2022-12-08T10:14:37.600Z,100385.78
2022-12-08T10:17:14.764Z,100392.59
2022-12-08T10:19:43.412Z,100392.50
2022-12-08T10:22:18.029Z,100395.53
2022-12-08T10:24:53.309Z,100400.66
2022-12-08T10:27:20.297Z,100407.53
2022-12-08T10:29:46.937Z,100403.41
2022-12-08T10:32:19.786Z,100392.03
2022-12-08T10:35:08.705Z,100399.75
2022-12-08T10:37:35.691Z,100393.44
2022-12-08T10:40:14.593Z,100393.16
2022-12-08T10:42:49.173Z,100400.75
2022-12-08T10:45:37.352Z,100396.97
2022-12-08T10:48:18.158Z,100385.59
2022-12-08T10:50:47.307Z,100385.25
2022-12-08T10:53:23.897Z,100384.00
2022-12-08T10:55:52.599Z,100373.06
2022-12-08T10:58:29.815Z,100381.84
2022-12-08T11:01:26.833Z,100392.66
2022-12-08T11:04:05.266Z,100389.59
2022-12-08T11:06:35.137Z,100386.31
2022-12-08T11:09:04.796Z,100378.97
2022-12-08T11:11:49.639Z,100387.94
2022-12-08T11:14:25.472Z,100382.34
2022-12-08T11:16:55.089Z,100373.50
2022-12-08T11:19:22.357Z,100381.75
2022-12-08T11:21:48.844Z,100376.00
2022-12-08T11:24:15.448Z,100388.88
2022-12-08T11:27:08.551Z,100373.91
2022-12-08T11:29:35.791Z,100377.25
2022-12-08T11:32:12.981Z,100381.28
2022-12-08T11:34:48.693Z,100383.06
2022-12-08T11:37:38.363Z,100375.00
2022-12-08T11:40:11.065Z,100382.84
2022-12-08T11:43:04.627Z,100375.72
2022-12-08T11:45:33.952Z,100366.00
2022-12-08T11:48:17.150Z,100367.94
2022-12-08T11:50:50.883Z,100370.13
2022-12-08T11:53:28.116Z,100361.19
2022-12-08T11:56:00.943Z,100364.06
2022-12-08T11:58:41.338Z,100367.44
2022-12-08T12:01:19.021Z,100366.34
2022-12-08T12:03:49.793Z,100366.25
2022-12-08T12:06:53.163Z,100373.69
2022-12-08T12:09:23.010Z,100378.28
2022-12-08T12:12:33.749Z,100379.72
2022-12-08T12:15:17.840Z,100376.31
2022-12-08T12:17:47.436Z,100372.41
2022-12-08T12:20:42.586Z,100371.03
2022-12-08T12:23:11.545Z,100369.00
2022-12-08T12:25:38.361Z,100364.88
2022-12-08T12:28:07.060Z,100357.84
2022-12-08T12:30:51.241Z,100364.97
2022-12-08T12:33:19.559Z,100361.56
2022-12-08T12:35:49.517Z,100366.50
2022-12-08T12:38:51.159Z,100362.66
2022-12-08T12:41:27.236Z,100363.00
2022-12-08T12:44:11.952Z,100358.47
2022-12-08T12:46:40.111Z,100359.19
2022-12-08T12:49:37.739Z,100350.34
2022-12-08T12:52:10.443Z,100365.38
2022-12-08T12:54:45.567Z,100362.66
2022-12-08T12:57:11.954Z,100365.75
2022-12-08T12:59:48.977Z,100357.16
2022-12-08T13:02:30.927Z,100362.38
2022-12-08T13:04:57.658Z,100355.22
2022-12-08T13:07:31.056Z,100353.41
2022-12-08T13:10:02.788Z,100346.28
2022-12-08T13:12:29.696Z,100359.63
2022-12-08T13:15:03.194Z,100364.34
2022-12-08T13:17:32.184Z,100350.59
2022-12-08T13:20:00.779Z,100350.16
2022-12-08T13:23:13.698Z,100347.59
2022-12-08T13:25:40.103Z,100356.00
2022-12-08T13:28:29.355Z,100354.06
2022-12-08T13:31:00.410Z,100360.38
2022-12-08T13:33:34.064Z,100357.34
2022-12-08T13:36:06.552Z,100352.31
2022-12-08T13:38:35.530Z,100359.31
2022-12-08T13:41:04.649Z,100361.78
2022-12-08T13:44:56.641Z,100363.69
2022-12-08T13:47:24.729Z,100357.38
2022-12-08T13:58:29.308Z,100360.56
2022-12-08T14:01:18.057Z,100369.72
2022-12-08T14:04:04.718Z,100364.75
2022-12-08T14:06:42.455Z,100365.66
2022-12-08T14:09:16.010Z,100379.34
2022-12-08T14:11:47.669Z,100370.91
2022-12-08T14:14:32.798Z,100368.34
2022-12-08T14:17:07.699Z,100374.09
2022-12-08T14:19:35.984Z,100381.13
2022-12-08T14:22:09.910Z,100380.38
2022-12-08T14:24:36.729Z,100386.84
2022-12-08T14:27:05.408Z,100389.72
2022-12-08T14:29:44.878Z,100384.13
2022-12-08T14:32:34.270Z,100386.06
2022-12-08T14:35:06.930Z,100395.75
2022-12-08T14:37:44.958Z,100398.28
2022-12-08T14:40:25.304Z,100381.00
2022-12-08T14:43:13.601Z,100391.69
2022-12-08T14:45:43.023Z,100392.84
2022-12-08T14:48:30.894Z,100387.63
2022-12-08T14:51:01.808Z,100388.53
2022-12-08T14:53:36.378Z,100399.94
2022-12-08T14:56:14.219Z,100395.06
2022-12-08T14:58:40.992Z,100407.31
2022-12-08T15:01:10.420Z,100400.66
2022-12-08T15:03:37.138Z,100402.31
2022-12-08T15:06:06.159Z,100398.94
2022-12-08T15:08:33.775Z,100406.19
2022-12-08T15:11:21.845Z,100413.75
2022-12-08T15:13:50.597Z,100414.56
2022-12-08T15:16:40.168Z,100412.72
2022-12-08T15:19:16.878Z,100411.25
2022-12-08T15:21:44.582Z,100412.41
2022-12-08T15:24:12.708Z,100410.91
2022-12-08T15:26:42.283Z,100417.72
2022-12-08T15:29:16.861Z,100417.72
2022-12-08T15:31:43.287Z,100416.22
2022-12-08T15:34:09.892Z,100414.75
2022-12-08T15:36:38.164Z,100412.50
2022-12-08T15:39:06.533Z,100416.31
2022-12-08T15:41:32.918Z,100421.59
2022-12-08T15:43:59.629Z,100417.44
2022-12-08T15:46:26.178Z,100416.66
2022-12-08T15:48:57.937Z,100415.53
2022-12-08T15:51:24.738Z,100417.78
2022-12-08T15:53:51.312Z,100415.16
2022-12-08T15:56:34.437Z,100414.00
2022-12-08T15:59:04.014Z,100417.78
2022-12-08T16:01:30.482Z,100418.16
2022-12-08T16:04:27.933Z,100421.91
2022-12-08T16:09:40.110Z,100414.34
2022-12-08T16:13:34.035Z,100421.47
2022-12-08T16:18:16.603Z,100433.91
2022-12-08T16:21:07.564Z,100432.75
2022-12-08T16:23:45.611Z,100439.56
2022-12-08T16:29:05.866Z,100434.25
2022-12-08T16:31:32.651Z,100436.41
2022-12-08T16:33:59.504Z,100437.13
2022-12-08T16:36:26.241Z,100437.91
2022-12-08T16:38:52.725Z,100443.13
2022-12-08T16:41:37.838Z,100446.44
2022-12-08T16:44:06.080Z,100444.63
2022-12-08T16:46:33.656Z,100457.47
2022-12-08T16:49:00.128Z,100455.09
2022-12-08T16:51:27.298Z,100450.53
2022-12-08T16:53:55.074Z,100453.44
2022-12-08T16:56:26.207Z,100455.63
2022-12-08T16:58:57.199Z,100457.31
2022-12-08T17:01:23.938Z,100456.59
2022-12-08T17:04:07.470Z,100453.53
2022-12-08T17:06:36.830Z,100456.56
2022-12-08T17:09:03.417Z,100466.38
2022-12-08T17:11:36.234Z,100465.94
2022-12-08T17:14:09.085Z,100466.28
2022-12-08T17:16:35.695Z,100475.06
2022-12-08T17:19:02.684Z,100470.59
2022-12-08T17:21:29.186Z,100468.75
2022-12-08T17:23:55.880Z,100459.00
2022-12-08T17:26:22.352Z,100468.06
2022-12-08T17:29:04.258Z,100471.94
2022-12-08T17:31:32.464Z,100472.00
2022-12-08T17:34:03.070Z,100467.50
2022-12-08T17:36:29.569Z,100483.00
2022-12-08T17:38:57.211Z,100482.63
2022-12-08T17:41:23.635Z,100475.13
2022-12-08T17:43:50.114Z,100481.16
2022-12-08T17:46:20.492Z,100478.13
2022-12-08T17:48:47.371Z,100475.13
2022-12-08T17:51:14.332Z,100483.03
2022-12-08T17:53:40.889Z,100476.69
2022-12-08T17:56:14.963Z,100477.81
2022-12-08T17:58:41.379Z,100475.53
2022-12-08T18:01:09.792Z,100479.69
2022-12-08T18:03:36.846Z,100477.09
2022-12-08T18:06:08.173Z,100475.94
2022-12-08T18:08:34.585Z,100479.72
2022-12-08T18:11:01.429Z,100481.22
2022-12-08T18:13:27.930Z,100485.00
2022-12-08T18:15:54.364Z,100475.16
2022-12-08T18:18:22.536Z,100480.47
2022-12-08T18:20:49.601Z,100480.47
2022-12-08T18:23:17.103Z,100481.19
2022-12-08T18:25:44.676Z,100481.16
2022-12-08T18:28:11.145Z,100486.38
2022-12-08T18:30:37.736Z,100475.81
2022-12-08T18:33:05.120Z,100481.00
2022-12-08T18:35:32.000Z,100471.13
2022-12-08T18:38:00.053Z,100476.31
2022-12-08T18:40:28.014Z,100477.94
2022-12-08T18:42:54.636Z,100475.53
2022-12-08T18:45:22.765Z,100469.47
2022-12-08T18:47:50.402Z,100473.22
2022-12-08T18:50:17.385Z,100470.91
2022-12-08T18:52:45.194Z,100475.41
2022-12-08T18:55:12.024Z,100471.53
2022-12-08T18:57:39.599Z,100471.81
2022-12-08T19:00:08.032Z,100474.44
2022-12-08T19:02:37.423Z,100481.88
2022-12-08T19:05:04.616Z,100476.56
2022-12-08T19:07:31.034Z,100483.41
2022-12-08T19:09:59.099Z,100484.19
2022-12-08T19:12:25.504Z,100465.97
2022-12-08T19:14:51.958Z,100475.34
2022-12-08T19:17:18.355Z,100477.03
2022-12-08T19:19:45.317Z,100477.31
2022-12-08T19:22:12.276Z,100479.38
2022-12-08T19:24:38.802Z,100482.31
2022-12-08T19:27:05.737Z,100488.06
2022-12-08T19:29:32.289Z,100483.84
2022-12-08T19:32:00.209Z,100480.91
2022-12-08T19:34:26.716Z,100485.19
2022-12-08T19:36:53.381Z,100486.66
2022-12-08T19:39:40.699Z,100501.38
2022-12-08T19:42:37.498Z,100499.16
2022-12-08T19:45:07.861Z,100503.38
2022-12-08T19:47:34.421Z,100497.69
2022-12-08T19:50:20.184Z,100504.50
2022-12-08T19:52:46.634Z,100506.59
2022-12-08T19:55:13.432Z,100501.41
2022-12-08T19:57:39.886Z,100503.78
2022-12-08T20:00:08.297Z,100501.72
2022-12-08T20:02:36.339Z,100497.69
2022-12-08T20:05:04.544Z,100501.44
2022-12-08T20:07:31.028Z,100504.53
2022-12-08T20:09:57.465Z,100506.69
2022-12-08T20:12:24.238Z,100514.81
2022-12-08T20:14:50.659Z,100506.63
2022-12-08T20:17:17.101Z,100513.97
2022-12-08T20:19:43.655Z,100503.78
2022-12-08T20:22:10.120Z,100512.91
2022-12-08T20:24:36.582Z,100512.91
2022-12-08T20:27:02.981Z,100517.44
2022-12-08T20:29:29.498Z,100515.91
2022-12-08T20:31:55.980Z,100522.34
2022-12-08T20:34:22.449Z,100517.78
2022-12-08T20:36:48.927Z,100515.13
2022-12-08T20:39:17.071Z,100520.47
2022-12-08T20:41:45.004Z,100526.53
2022-12-08T20:44:11.921Z,100534.13
2022-12-08T20:46:38.571Z,100528.84
2022-12-08T20:49:05.738Z,100526.53
2022-12-08T20:51:33.590Z,100527.25
2022-12-08T20:54:00.167Z,100518.19
2022-12-08T20:56:27.130Z,100522.03
2022-12-08T20:58:53.934Z,100525.44
2022-12-08T21:01:22.691Z,100529.59
2022-12-08T21:03:50.384Z,100526.94
2022-12-08T21:06:22.180Z,100524.28
2022-12-08T21:08:48.947Z,100522.78
2022-12-08T21:11:15.987Z,100524.22
2022-12-08T21:13:43.161Z,100528.06
2022-12-08T21:16:13.020Z,100521.66
2022-12-08T21:18:40.207Z,100527.31
2022-12-08T21:21:13.011Z,100525.41
2022-12-08T21:23:40.518Z,100528.03
2022-12-08T21:26:18.436Z,100528.78
2022-12-08T21:28:45.947Z,100523.44
2022-12-08T21:31:16.040Z,100516.69
2022-12-08T21:33:42.787Z,100526.44
2022-12-08T21:36:14.656Z,100523.06
2022-12-08T21:38:42.257Z,100528.69
2022-12-08T21:41:10.998Z,100527.97
2022-12-08T21:43:37.783Z,100533.94
2022-12-08T21:46:04.783Z,100529.81
2022-12-08T21:48:31.515Z,100542.28
2022-12-08T21:51:04.348Z,100537.75
2022-12-08T21:53:30.841Z,100529.44
2022-12-08T21:55:57.407Z,100534.31
2022-12-08T21:58:23.861Z,100531.25
2022-12-08T22:00:50.570Z,100527.88
2022-12-08T22:03:17.337Z,100530.91
2022-12-08T22:05:44.079Z,100533.50
2022-12-08T22:08:10.718Z,100531.28
2022-12-08T22:10:38.345Z,100532.75
2022-12-08T22:13:11.416Z,100533.53
2022-12-08T22:15:38.099Z,100532.34
2022-12-08T22:18:05.295Z,100539.22
2022-12-08T22:20:43.724Z,100543.41
2022-12-08T22:23:11.103Z,100531.63
2022-12-08T22:25:37.715Z,100525.22
2022-12-08T22:28:04.688Z,100525.59
2022-12-08T22:30:37.229Z,100533.94
2022-12-08T22:33:05.516Z,100531.63
2022-12-08T22:35:32.171Z,100529.31
2022-12-08T22:37:58.715Z,100533.84
2022-12-08T22:40:25.258Z,100530.38
2022-12-08T22:42:51.803Z,100530.38
2022-12-08T22:45:18.459Z,100534.16
2022-12-08T22:47:45.037Z,100532.63
2022-12-08T22:50:11.944Z,100540.56
2022-12-08T22:52:38.848Z,100526.22
2022-12-08T22:55:05.893Z,100534.56
2022-12-08T22:57:32.805Z,100527.75
2022-12-08T22:59:59.242Z,100535.97
2022-12-08T23:02:25.915Z,100536.75
2022-12-08T23:04:56.214Z,100534.84
2022-12-08T23:07:23.062Z,100546.22
2022-12-08T23:09:49.577Z,100545.50
2022-12-08T23:12:16.028Z,100550.38
2022-12-08T23:14:42.761Z,100533.81
2022-12-08T23:17:10.894Z,100551.22
2022-12-08T23:19:38.698Z,100542.25
2022-12-08T23:22:05.403Z,100547.81
2022-12-08T23:24:31.957Z,100549.69
2022-12-08T23:26:58.539Z,100550.16
2022-12-08T23:29:25.153Z,100545.25
2022-12-08T23:31:51.704Z,100556.94
2022-12-08T23:34:18.396Z,100545.22
2022-12-08T23:36:44.925Z,100543.00
2022-12-08T23:39:11.422Z,100547.16
2022-12-08T23:41:38.283Z,100540.63
2022-12-08T23:44:04.683Z,100552.13
2022-12-08T23:46:31.138Z,100552.84
2022-12-08T23:48:57.699Z,100551.78
2022-12-08T23:51:24.120Z,100563.47
2022-12-08T23:53:50.514Z,100553.66
2022-12-08T23:56:17.910Z,100557.44
2022-12-08T23:58:45.093Z,100558.25
